Time;durP1;ratioP1;P1;durP2;ratioP2;P2;SDS_P1;SDS_P2;PMS_P1;PMS_P2;Temp;Humidity;BMP_temperature;BMP_pressure;BME280_temperature;BME280_humidity;BME280_pressure;Samples;Min_cycle;Max_cycle;Signal;HPM_P1;HPM_P2
2022/08/18 00:02:24;;;;;;;3.17;2.17;;;22.90;99.90;;;;;;5035195;28;20209;-80
2022/08/18 00:04:51;;;;;;;2.07;1.97;;;22.80;99.90;;;;;;5029034;28;20190;-81
2022/08/18 00:07:26;;;;;;;1.90;1.80;;;22.70;99.90;;;;;;5029027;28;20255;-80
2022/08/18 00:09:52;;;;;;;2.17;1.80;;;22.70;99.90;;;;;;5036476;28;20728;-81
2022/08/18 00:12:24;;;;;;;2.30;1.70;;;22.60;99.90;;;;;;5032202;28;20190;-80
2022/08/18 00:14:51;;;;;;;1.10;1.10;;;22.60;99.90;;;;;;5024907;28;20673;-78
2022/08/18 00:17:17;;;;;;;1.70;1.30;;;22.50;99.90;;;;;;5031758;28;20221;-79
2022/08/18 00:19:43;;;;;;;1.10;1.10;;;22.40;99.90;;;;;;5026920;28;20171;-79
2022/08/18 00:22:11;;;;;;;2.90;0.97;;;22.40;99.90;;;;;;5031022;28;20198;-79
2022/08/18 00:24:37;;;;;;;1.43;1.33;;;22.40;99.90;;;;;;5034699;28;20273;-79
2022/08/18 00:27:04;;;;;;;1.20;1.13;;;22.40;99.90;;;;;;5027927;28;20255;-79
2022/08/18 00:29:30;;;;;;;2.00;1.30;;;22.40;99.90;;;;;;5026013;28;20204;-79
2022/08/18 00:31:55;;;;;;;1.27;1.17;;;22.50;99.90;;;;;;5037860;28;20181;-79
2022/08/18 00:34:21;;;;;;;1.13;0.73;;;22.60;99.90;;;;;;5035379;28;20269;-79
2022/08/18 00:36:47;;;;;;;0.93;0.80;;;22.60;99.90;;;;;;5032885;28;20367;-79
2022/08/18 00:39:12;;;;;;;0.97;0.97;;;22.70;99.90;;;;;;5029964;28;20183;-80
2022/08/18 00:41:38;;;;;;;2.40;1.33;;;22.80;99.90;;;;;;5034440;28;20256;-80
2022/08/18 00:44:03;;;;;;;1.70;1.00;;;22.80;99.90;;;;;;5028554;28;20182;-79
2022/08/18 00:46:32;;;;;;;2.67;1.10;;;22.90;99.90;;;;;;5028933;28;20194;-79
2022/08/18 00:48:58;;;;;;;0.90;0.90;;;23.00;99.90;;;;;;5032618;28;20669;-80
2022/08/18 00:51:39;;;;;;;1.60;1.33;;;23.10;99.90;;;;;;5034342;28;20182;-79
2022/08/18 00:54:14;;;;;;;1.20;1.07;;;23.10;99.90;;;;;;5031527;28;20202;-79
2022/08/18 00:56:47;;;;;;;0.50;0.50;;;23.20;99.90;;;;;;5026834;28;20202;-79
2022/08/18 00:59:32;;;;;;;1.17;1.07;;;23.20;99.90;;;;;;5037951;28;20209;-80
2022/08/18 01:02:01;;;;;;;1.07;0.80;;;23.20;99.90;;;;;;5029517;28;20769;-79
2022/08/18 01:04:54;;;;;;;0.97;0.90;;;23.20;99.90;;;;;;5026517;28;20181;-80
2022/08/18 01:07:28;;;;;;;0.53;0.53;;;23.20;99.90;;;;;;5031824;28;20174;-80
2022/08/18 01:09:57;;;;;;;1.47;1.10;;;23.20;99.90;;;;;;5023509;28;20242;-81
2022/08/18 01:12:22;;;;;;;1.30;1.20;;;23.10;99.90;;;;;;5027367;28;20186;-80
2022/08/18 01:14:48;;;;;;;1.23;1.17;;;23.20;99.90;;;;;;5030051;28;20193;-79
2022/08/18 01:22:48;;;;;;;1.20;1.07;;;23.30;99.90;;;;;;5027873;28;20224;-80
2022/08/18 01:28:04;;;;;;;2.10;1.73;;;23.40;99.90;;;;;;5035715;28;20253;-80
2022/08/18 01:30:31;;;;;;;1.83;1.60;;;23.30;99.90;;;;;;5028346;28;20174;-80
2022/08/18 01:32:57;;;;;;;3.53;1.70;;;23.00;99.90;;;;;;5035017;28;20186;-80
2022/08/18 01:35:25;;;;;;;4.17;1.83;;;22.70;99.90;;;;;;5016600;28;20206;-79
2022/08/18 01:37:53;;;;;;;1.40;1.30;;;22.50;99.90;;;;;;5030029;28;20841;-80
2022/08/18 01:40:21;;;;;;;2.70;1.53;;;22.30;99.90;;;;;;5026390;28;20703;-80
2022/08/18 01:42:47;;;;;;;1.40;1.07;;;22.40;99.90;;;;;;5028245;28;20187;-80
2022/08/18 01:45:15;;;;;;;2.77;1.23;;;22.30;99.90;;;;;;5036336;28;20214;-79
2022/08/18 01:47:42;;;;;;;1.60;1.50;;;22.10;99.90;;;;;;5023381;28;20193;-79
2022/08/18 01:50:12;;;;;;;2.77;1.57;;;22.10;99.90;;;;;;5030866;28;20199;-79
2022/08/18 01:52:38;;;;;;;1.07;1.00;;;22.10;99.90;;;;;;5017761;28;20191;-79
2022/08/18 01:55:06;;;;;;;3.73;1.33;;;22.20;99.90;;;;;;5033780;28;20287;-80
2022/08/18 01:57:32;;;;;;;1.83;1.53;;;22.20;99.90;;;;;;5031724;28;20178;-79
2022/08/18 01:59:59;;;;;;;1.40;1.20;;;22.30;99.90;;;;;;5038069;28;20708;-79
2022/08/18 02:02:30;;;;;;;1.93;1.10;;;22.20;99.90;;;;;;5047045;28;20175;-79
2022/08/18 02:05:01;;;;;;;1.90;1.00;;;22.30;99.90;;;;;;5037283;28;20245;-80
2022/08/18 02:07:27;;;;;;;1.17;1.07;;;22.40;99.90;;;;;;5034447;28;20186;-80
2022/08/18 02:09:53;;;;;;;0.80;0.80;;;22.60;99.90;;;;;;5030244;28;20661;-80
2022/08/18 02:12:19;;;;;;;1.93;1.33;;;22.50;99.90;;;;;;5034865;28;20189;-80
2022/08/18 02:14:45;;;;;;;0.90;0.90;;;22.60;99.90;;;;;;5029882;28;20540;-79
2022/08/18 02:17:12;;;;;;;0.83;0.83;;;22.70;99.90;;;;;;5031310;28;20259;-79
2022/08/18 02:19:44;;;;;;;1.00;1.00;;;22.80;99.90;;;;;;5033368;28;20183;-79
2022/08/18 02:22:17;;;;;;;1.60;0.90;;;22.80;99.90;;;;;;5033547;28;20205;-79
2022/08/18 02:24:43;;;;;;;2.77;1.27;;;22.70;99.90;;;;;;5037845;28;20705;-79
2022/08/18 02:27:11;;;;;;;1.70;1.60;;;22.70;99.90;;;;;;5027822;28;20198;-79
2022/08/18 02:29:37;;;;;;;2.60;1.50;;;22.50;99.90;;;;;;5038390;28;20625;-79
2022/08/18 02:32:03;;;;;;;1.97;1.53;;;22.40;99.90;;;;;;5035702;28;20189;-79
2022/08/18 02:34:29;;;;;;;2.43;1.90;;;22.40;99.90;;;;;;5029899;28;20188;-79
2022/08/18 02:36:54;;;;;;;1.20;1.20;;;22.20;99.90;;;;;;5034086;28;20206;-79
2022/08/18 02:39:20;;;;;;;1.40;1.30;;;22.00;99.90;;;;;;5035430;28;20186;-79
2022/08/18 02:41:46;;;;;;;1.13;1.07;;;22.10;99.90;;;;;;5036723;28;20369;-79
2022/08/18 02:44:12;;;;;;;1.73;1.27;;;22.10;99.90;;;;;;5033230;28;20197;-79
2022/08/18 02:46:37;;;;;;;2.40;1.43;;;22.10;99.90;;;;;;5031129;28;20684;-79
2022/08/18 02:49:05;;;;;;;1.53;1.30;;;22.10;99.90;;;;;;5032727;28;20248;-79
2022/08/18 02:51:31;;;;;;;1.13;1.03;;;22.10;99.90;;;;;;5035103;28;20193;-79
2022/08/18 02:53:58;;;;;;;1.70;1.03;;;22.10;99.90;;;;;;5033874;28;20190;-80
2022/08/18 02:56:27;;;;;;;1.43;1.33;;;22.20;99.90;;;;;;5036805;28;20206;-80
2022/08/18 02:58:58;;;;;;;1.37;1.27;;;22.10;99.90;;;;;;5031727;28;20185;-80
2022/08/18 03:01:27;;;;;;;1.10;1.03;;;22.10;99.90;;;;;;5030151;28;20261;-79
2022/08/18 03:03:55;;;;;;;1.83;1.30;;;22.10;99.90;;;;;;5029381;28;20182;-79
2022/08/18 03:06:21;;;;;;;0.87;0.80;;;22.20;99.90;;;;;;5030304;28;20217;-80
2022/08/18 03:08:49;;;;;;;1.30;0.97;;;22.20;99.90;;;;;;5027578;28;20182;-79
2022/08/18 03:11:26;;;;;;;0.63;0.63;;;22.30;99.90;;;;;;5030015;28;20194;-79
2022/08/18 03:13:52;;;;;;;1.27;1.17;;;22.30;99.90;;;;;;5027190;28;20193;-79
2022/08/18 03:16:18;;;;;;;1.03;0.93;;;22.40;99.90;;;;;;5036258;28;20221;-79
2022/08/18 03:18:45;;;;;;;1.30;1.20;;;22.20;99.90;;;;;;5026557;28;20194;-79
2022/08/18 03:21:17;;;;;;;2.57;1.40;;;22.30;99.90;;;;;;5034469;28;20182;-79
2022/08/18 03:23:43;;;;;;;0.80;0.80;;;22.20;99.90;;;;;;5030889;28;20185;-79
2022/08/18 03:26:12;;;;;;;1.47;1.37;;;22.20;99.90;;;;;;5025189;28;20206;-79
2022/08/18 03:28:39;;;;;;;2.40;1.10;;;22.20;99.90;;;;;;5025927;28;20554;-79
2022/08/18 03:31:06;;;;;;;0.73;0.70;;;22.20;99.90;;;;;;5027098;28;20737;-80
2022/08/18 03:33:31;;;;;;;1.03;0.77;;;22.40;99.90;;;;;;5023925;28;20557;-79
2022/08/18 03:36:07;;;;;;;2.17;1.13;;;22.30;99.90;;;;;;5032843;28;20206;-80
2022/08/18 03:38:33;;;;;;;2.03;0.90;;;22.30;99.90;;;;;;5025953;28;20186;-80
2022/08/18 03:40:58;;;;;;;1.13;1.00;;;22.30;99.90;;;;;;5039623;28;20193;-80
2022/08/18 03:43:24;;;;;;;0.97;0.70;;;22.40;99.90;;;;;;5030438;28;20182;-80
2022/08/18 03:45:49;;;;;;;1.90;1.20;;;22.50;99.90;;;;;;5039936;28;20207;-80
2022/08/18 03:48:15;;;;;;;0.87;0.87;;;22.50;99.90;;;;;;5030805;28;20197;-79
2022/08/18 03:50:41;;;;;;;0.87;0.70;;;22.60;99.90;;;;;;5035879;28;20209;-79
2022/08/18 03:53:06;;;;;;;1.13;0.97;;;22.60;99.90;;;;;;5034332;28;20189;-80
2022/08/18 03:55:32;;;;;;;0.87;0.70;;;22.60;99.90;;;;;;5034884;28;20248;-80
2022/08/18 03:58:02;;;;;;;2.40;1.47;;;22.70;99.90;;;;;;5032216;28;20170;-80
2022/08/18 04:00:30;;;;;;;0.50;0.50;;;22.70;99.90;;;;;;5027304;28;20224;-80
2022/08/18 04:02:58;;;;;;;1.37;0.97;;;22.70;99.90;;;;;;5038859;28;20269;-80
2022/08/18 04:05:24;;;;;;;1.33;1.20;;;22.60;99.90;;;;;;5032373;28;20197;-80
2022/08/18 04:07:49;;;;;;;1.90;1.33;;;22.60;99.90;;;;;;5032760;28;20187;-80
2022/08/18 04:10:15;;;;;;;0.73;0.73;;;22.40;99.90;;;;;;5027990;28;20194;-80
2022/08/18 04:12:41;;;;;;;1.17;0.87;;;22.40;99.90;;;;;;5033378;28;20190;-80
2022/08/18 04:15:08;;;;;;;1.27;1.00;;;22.40;99.90;;;;;;5030117;28;20641;-81
2022/08/18 04:17:34;;;;;;;1.07;0.97;;;22.00;99.90;;;;;;5029970;28;20340;-80
2022/08/18 04:20:00;;;;;;;1.00;1.00;;;21.90;99.90;;;;;;5030762;28;20269;-80
2022/08/18 04:22:25;;;;;;;1.30;1.20;;;21.70;99.90;;;;;;5029226;28;20195;-80
2022/08/18 04:24:52;;;;;;;1.17;0.80;;;21.70;99.90;;;;;;5037570;28;20193;-80
2022/08/18 04:27:20;;;;;;;4.50;1.23;;;21.60;99.90;;;;;;5027556;28;20221;-80
2022/08/18 04:29:46;;;;;;;2.23;1.40;;;21.70;99.90;;;;;;5033183;28;20273;-80
2022/08/18 04:32:12;;;;;;;0.87;0.87;;;21.60;99.90;;;;;;5024287;28;20592;-80
2022/08/18 04:34:37;;;;;;;2.03;1.23;;;21.60;99.90;;;;;;5031473;28;20177;-80
2022/08/18 04:37:03;;;;;;;2.23;0.67;;;21.50;99.90;;;;;;5027601;28;20649;-80
2022/08/18 04:39:29;;;;;;;1.03;0.90;;;21.50;99.90;;;;;;5035300;28;20189;-80
2022/08/18 04:41:55;;;;;;;1.50;1.00;;;21.60;99.90;;;;;;5029789;28;20179;-79
2022/08/18 04:44:21;;;;;;;1.43;1.17;;;21.70;99.90;;;;;;5032231;28;20261;-80
2022/08/18 04:46:52;;;;;;;1.73;1.43;;;21.80;99.90;;;;;;5037095;28;20703;-80
2022/08/18 04:49:20;;;;;;;1.20;0.90;;;21.70;99.90;;;;;;5026597;28;20579;-80
2022/08/18 04:54:37;;;;;;;0.80;0.80;;;21.70;99.90;;;;;;5028646;28;20659;-79
2022/08/18 04:57:17;;;;;;;1.70;1.20;;;21.70;99.90;;;;;;5028863;28;20292;-79
2022/08/18 04:59:44;;;;;;;1.33;1.23;;;21.70;99.90;;;;;;5023428;28;20183;-79
2022/08/18 05:02:10;;;;;;;0.73;0.73;;;21.80;99.90;;;;;;5032988;28;20175;-79
2022/08/18 05:04:38;;;;;;;0.90;0.90;;;21.80;99.90;;;;;;5026472;28;20183;-80
2022/08/18 05:07:04;;;;;;;1.33;1.03;;;22.00;99.90;;;;;;5032990;28;20566;-79
2022/08/18 05:09:31;;;;;;;1.43;1.13;;;22.10;99.90;;;;;;5027599;28;20183;-80
2022/08/18 05:11:56;;;;;;;7.10;1.10;;;22.00;99.90;;;;;;5031209;28;20178;-80
2022/08/18 05:14:23;;;;;;;1.97;1.60;;;22.00;99.90;;;;;;5042552;28;20574;-81
2022/08/18 05:16:50;;;;;;;1.17;1.03;;;22.00;99.90;;;;;;5025485;28;20225;-80
2022/08/18 05:19:21;;;;;;;2.20;1.00;;;21.90;99.90;;;;;;5028473;28;20195;-79
2022/08/18 05:21:47;;;;;;;1.80;1.43;;;21.90;99.90;;;;;;5037539;28;20651;-80
2022/08/18 05:24:12;;;;;;;1.17;1.03;;;22.10;99.90;;;;;;5027580;28;20273;-80
2022/08/18 05:26:40;;;;;;;1.50;1.40;;;22.00;99.90;;;;;;5024172;28;20244;-80
2022/08/18 05:29:06;;;;;;;1.80;1.17;;;22.10;99.90;;;;;;5036714;28;20174;-81
2022/08/18 05:31:32;;;;;;;1.90;1.17;;;22.10;99.90;;;;;;5047463;28;20174;-81
2022/08/18 05:34:00;;;;;;;5.70;1.33;;;22.20;99.90;;;;;;5041674;28;20559;-81
2022/08/18 05:36:47;;;;;;;0.67;0.67;;;22.20;99.90;;;;;;5046402;28;20246;-80
2022/08/18 05:39:45;;;;;;;1.87;1.13;;;22.20;99.90;;;;;;5043835;28;20209;-80
2022/08/18 05:42:17;;;;;;;1.40;1.30;;;22.10;99.90;;;;;;5046024;28;20190;-81
2022/08/18 05:44:46;;;;;;;1.67;1.00;;;22.10;99.90;;;;;;5032967;28;20185;-81
2022/08/18 05:47:13;;;;;;;0.93;0.90;;;22.00;99.90;;;;;;5028450;28;20288;-81
2022/08/18 05:49:47;;;;;;;0.70;0.70;;;22.00;99.90;;;;;;5029365;28;20211;-81
2022/08/18 05:52:30;;;;;;;1.40;0.87;;;22.00;99.90;;;;;;5035229;28;20181;-81
2022/08/18 05:57:58;;;;;;;1.00;1.00;;;22.10;99.90;;;;;;5035026;28;20284;-80
2022/08/18 06:00:25;;;;;;;2.13;1.10;;;22.20;99.90;;;;;;5030720;28;20265;-80
2022/08/18 06:03:05;;;;;;;1.33;0.90;;;22.20;99.90;;;;;;5044353;28;20652;-80
2022/08/18 06:05:35;;;;;;;1.00;0.93;;;22.20;99.90;;;;;;5027274;28;20248;-80
2022/08/18 06:08:07;;;;;;;1.10;1.00;;;22.20;99.90;;;;;;5036325;28;20183;-80
2022/08/18 06:10:35;;;;;;;1.07;1.00;;;22.20;99.90;;;;;;5029108;28;20210;-80
2022/08/18 06:13:01;;;;;;;1.00;1.00;;;22.30;99.90;;;;;;5040205;28;20270;-80
2022/08/18 06:15:44;;;;;;;1.60;1.50;;;22.20;99.90;;;;;;5034188;28;20293;-80
2022/08/18 06:18:43;;;;;;;1.50;1.23;;;22.20;99.90;;;;;;5026526;28;20183;-80
2022/08/18 06:21:38;;;;;;;1.50;1.40;;;22.30;99.90;;;;;;5036614;28;20504;-81
2022/08/18 06:24:32;;;;;;;1.40;1.30;;;22.20;99.90;;;;;;5027856;28;20194;-80
2022/08/18 06:27:10;;;;;;;1.10;1.00;;;22.10;99.90;;;;;;5017579;28;20570;-81
2022/08/18 06:30:03;;;;;;;8.13;2.03;;;22.30;99.90;;;;;;5028468;28;20185;-80
2022/08/18 06:32:48;;;;;;;1.37;1.27;;;22.50;99.90;;;;;;5032689;28;20189;-80
2022/08/18 06:35:37;;;;;;;1.10;1.10;;;22.50;99.90;;;;;;5028019;28;20241;-81
2022/08/18 06:38:39;;;;;;;1.33;1.03;;;22.60;99.90;;;;;;5030975;28;20202;-80
2022/08/18 06:41:18;;;;;;;0.60;0.60;;;22.50;99.90;;;;;;5031724;28;20189;-80
2022/08/18 06:43:58;;;;;;;1.17;1.07;;;22.70;99.90;;;;;;5023305;28;20681;-78
2022/08/18 06:46:40;;;;;;;2.33;1.60;;;22.90;99.90;;;;;;5029266;28;20206;-78
2022/08/18 06:49:13;;;;;;;1.67;1.27;;;22.80;99.90;;;;;;5036592;28;20602;-79
2022/08/18 06:51:40;;;;;;;1.50;1.23;;;22.80;99.90;;;;;;5032033;28;20678;-79
2022/08/18 06:54:27;;;;;;;1.60;1.27;;;22.60;99.90;;;;;;5037172;28;20273;-79
2022/08/18 06:56:54;;;;;;;2.23;1.33;;;22.50;99.90;;;;;;5034165;28;20293;-79
2022/08/18 06:59:32;;;;;;;2.43;2.33;;;22.40;99.90;;;;;;5031687;28;20183;-79
2022/08/18 07:01:59;;;;;;;3.20;1.73;;;22.50;99.90;;;;;;5030983;28;20666;-80
2022/08/18 07:04:56;;;;;;;1.20;1.10;;;22.40;99.90;;;;;;5034655;28;20182;-79
2022/08/18 07:07:35;;;;;;;2.53;1.43;;;22.60;99.90;;;;;;5033349;28;20250;-79
2022/08/18 07:10:05;;;;;;;1.97;1.20;;;22.40;99.90;;;;;;5041897;28;20212;-79
2022/08/18 07:12:31;;;;;;;1.13;1.07;;;22.40;99.90;;;;;;5033104;28;20179;-80
2022/08/18 07:14:59;;;;;;;0.70;0.70;;;22.50;99.90;;;;;;5033137;28;20186;-80
2022/08/18 07:17:34;;;;;;;3.20;1.87;;;22.30;99.90;;;;;;5025342;28;20211;-80
2022/08/18 07:20:21;;;;;;;2.27;1.03;;;22.30;99.90;;;;;;5029105;28;20236;-81
2022/08/18 07:22:57;;;;;;;2.13;1.03;;;22.30;99.90;;;;;;5035876;28;20220;-80
2022/08/18 07:25:30;;;;;;;0.90;0.77;;;22.60;99.90;;;;;;5046452;28;20260;-80
2022/08/18 07:27:56;;;;;;;2.73;1.10;;;22.70;99.90;;;;;;5031501;28;20427;-80
2022/08/18 07:30:22;;;;;;;1.40;1.30;;;22.80;99.90;;;;;;5029657;28;20178;-80
2022/08/18 07:32:53;;;;;;;1.10;0.87;;;22.90;99.90;;;;;;5033807;28;20200;-80
2022/08/18 07:35:26;;;;;;;1.27;1.00;;;22.90;99.90;;;;;;5031222;28;20209;-79
2022/08/18 07:38:16;;;;;;;1.33;0.83;;;22.70;99.90;;;;;;5033597;28;20181;-80
2022/08/18 07:40:51;;;;;;;1.83;1.40;;;22.90;99.90;;;;;;5030304;28;20185;-80
2022/08/18 07:43:26;;;;;;;2.27;1.03;;;23.00;99.90;;;;;;5038079;28;20196;-80
2022/08/18 07:45:59;;;;;;;1.20;1.03;;;23.10;99.90;;;;;;5039653;28;20206;-80
2022/08/18 07:48:29;;;;;;;2.07;1.70;;;23.00;99.90;;;;;;5029024;28;20194;-80
2022/08/18 07:51:03;;;;;;;1.73;1.33;;;23.00;99.90;;;;;;5031205;28;20243;-79
2022/08/18 07:53:45;;;;;;;1.57;1.47;;;23.10;99.90;;;;;;5031998;28;20179;-79
2022/08/18 07:56:23;;;;;;;1.33;1.17;;;22.80;99.90;;;;;;5025329;28;20875;-79
2022/08/18 07:59:11;;;;;;;2.87;1.37;;;22.80;99.90;;;;;;5025223;28;20198;-80
2022/08/18 08:01:38;;;;;;;3.83;1.97;;;22.90;99.90;;;;;;5033450;28;20692;-79
2022/08/18 08:04:14;;;;;;;2.90;2.03;;;22.80;99.90;;;;;;5032914;28;20692;-79
2022/08/18 08:06:58;;;;;;;3.13;1.37;;;22.60;99.90;;;;;;5029091;28;20197;-79
2022/08/18 08:09:42;;;;;;;0.90;0.90;;;22.60;99.90;;;;;;5019516;28;20182;-80
2022/08/18 08:12:37;;;;;;;1.37;1.23;;;22.50;99.90;;;;;;5038281;28;20193;-80
2022/08/18 08:15:26;;;;;;;1.77;1.47;;;22.60;99.90;;;;;;5029399;28;20190;-80
2022/08/18 08:18:09;;;;;;;2.03;1.67;;;22.70;99.90;;;;;;5029793;28;20567;-80
2022/08/18 08:20:48;;;;;;;1.20;1.10;;;22.70;99.90;;;;;;5033829;28;20177;-80
2022/08/18 08:23:29;;;;;;;1.03;0.93;;;22.90;99.90;;;;;;5030858;28;20172;-80
2022/08/18 08:26:18;;;;;;;1.33;1.17;;;22.70;99.90;;;;;;5032748;28;20212;-79
2022/08/18 08:29:09;;;;;;;2.10;1.43;;;22.60;99.90;;;;;;5028172;28;20652;-80
2022/08/18 08:32:02;;;;;;;2.50;1.37;;;22.80;99.90;;;;;;5030656;28;20188;-79
2022/08/18 08:34:47;;;;;;;1.37;1.27;;;23.10;99.90;;;;;;5032031;28;20265;-80
2022/08/18 08:37:23;;;;;;;1.43;1.33;;;23.00;99.90;;;;;;5025363;28;20225;-79
2022/08/18 08:40:11;;;;;;;1.70;1.40;;;22.80;99.90;;;;;;5046652;28;20263;-80
2022/08/18 08:43:06;;;;;;;2.43;1.10;;;22.80;99.90;;;;;;5030190;28;20182;-80
2022/08/18 08:45:41;;;;;;;0.90;0.90;;;22.80;99.90;;;;;;5033063;28;20194;-80
2022/08/18 08:48:26;;;;;;;3.83;1.33;;;22.90;99.90;;;;;;5025492;28;20182;-79
2022/08/18 08:51:00;;;;;;;2.13;1.27;;;23.00;99.90;;;;;;5030557;28;20215;-80
2022/08/18 08:53:34;;;;;;;1.30;1.17;;;23.20;99.90;;;;;;5026188;28;20281;-80
2022/08/18 08:56:08;;;;;;;2.23;1.60;;;23.20;99.90;;;;;;5031937;28;20210;-79
2022/08/18 08:58:43;;;;;;;3.07;1.80;;;23.00;99.90;;;;;;5032466;28;20194;-79
2022/08/18 09:01:21;;;;;;;2.60;1.83;;;23.20;99.90;;;;;;5029404;28;20264;-80
2022/08/18 09:04:06;;;;;;;1.50;1.40;;;23.20;99.90;;;;;;5034877;28;20825;-80
2022/08/18 09:07:09;;;;;;;2.07;1.87;;;23.10;99.90;;;;;;5028137;28;20206;-79
2022/08/18 09:10:07;;;;;;;1.50;1.40;;;22.90;99.90;;;;;;5029455;28;20663;-79
2022/08/18 09:13:07;;;;;;;2.17;1.43;;;23.20;99.90;;;;;;5028586;28;20189;-79
2022/08/18 09:15:47;;;;;;;1.60;1.30;;;23.60;99.90;;;;;;5024435;28;20219;-80
2022/08/18 09:18:37;;;;;;;2.80;1.63;;;23.60;99.90;;;;;;5029064;28;20170;-79
2022/08/18 09:21:07;;;;;;;2.63;2.37;;;23.90;99.90;;;;;;5030132;28;20189;-79
2022/08/18 09:23:40;;;;;;;1.30;1.13;;;23.80;99.90;;;;;;5030253;28;20560;-79
2022/08/18 09:26:38;;;;;;;1.53;1.17;;;23.50;99.90;;;;;;5032321;28;20642;-79
2022/08/18 09:29:41;;;;;;;4.73;2.13;;;23.90;99.90;;;;;;5030778;28;20182;-79
2022/08/18 09:32:21;;;;;;;1.73;1.53;;;23.60;99.90;;;;;;5033275;28;20567;-79
2022/08/18 09:35:05;;;;;;;1.80;1.70;;;23.70;99.90;;;;;;5041680;28;20189;-79
2022/08/18 09:43:51;;;;;;;5.17;2.27;;;23.90;99.90;;;;;;5035538;28;20168;-78
2022/08/18 09:46:42;;;;;;;1.93;1.53;;;23.70;99.90;;;;;;5025220;28;20742;-78
2022/08/18 09:49:26;;;;;;;1.57;1.13;;;23.30;99.90;;;;;;5029125;28;21644;-78
2022/08/18 09:51:54;;;;;;;1.70;1.60;;;23.80;99.90;;;;;;5030203;28;20574;-78
2022/08/18 09:54:29;;;;;;;1.97;1.60;;;23.40;99.90;;;;;;5023837;28;20263;-78
2022/08/18 09:57:16;;;;;;;2.20;1.47;;;23.20;99.90;;;;;;5034284;28;20332;-79
2022/08/18 09:59:46;;;;;;;1.90;1.70;;;23.00;99.90;;;;;;5030507;28;20644;-78
2022/08/18 10:02:31;;;;;;;1.10;1.00;;;23.10;99.90;;;;;;5033589;28;20174;-78
2022/08/18 10:05:18;;;;;;;2.40;1.93;;;23.20;99.90;;;;;;5028133;28;20692;-78
2022/08/18 10:07:46;;;;;;;1.93;1.70;;;23.10;99.90;;;;;;5028818;28;20252;-78
2022/08/18 10:10:43;;;;;;;1.20;1.10;;;23.20;99.90;;;;;;5029738;28;20583;-78
2022/08/18 10:13:21;;;;;;;2.20;1.50;;;23.50;99.90;;;;;;5028642;28;20245;-79
2022/08/18 10:16:04;;;;;;;1.53;1.00;;;23.60;99.90;;;;;;5033326;28;20294;-78
2022/08/18 10:19:15;;;;;;;2.03;1.83;;;23.90;99.90;;;;;;5029037;28;20174;-79
2022/08/18 10:21:57;;;;;;;2.73;2.00;;;23.60;99.90;;;;;;5032484;28;20175;-79
2022/08/18 10:24:36;;;;;;;2.17;1.07;;;23.70;99.90;;;;;;5039137;28;20539;-79
2022/08/18 10:27:37;;;;;;;1.50;1.40;;;23.90;99.90;;;;;;5040088;28;20293;-79
2022/08/18 10:30:04;;;;;;;1.37;1.27;;;23.70;99.90;;;;;;5045251;28;20238;-79
2022/08/18 10:32:40;;;;;;;3.00;1.43;;;23.70;99.90;;;;;;5045077;28;20178;-79
2022/08/18 10:35:35;;;;;;;1.37;1.20;;;23.90;99.90;;;;;;5045853;28;20205;-79
2022/08/18 10:38:16;;;;;;;1.57;1.47;;;24.00;99.90;;;;;;5046956;28;20660;-79
2022/08/18 10:40:51;;;;;;;3.03;1.87;;;23.90;99.90;;;;;;5034657;28;20235;-79
2022/08/18 10:43:23;;;;;;;1.97;1.20;;;23.50;99.90;;;;;;5042738;28;20281;-79
2022/08/18 10:45:52;;;;;;;1.80;1.30;;;23.70;99.90;;;;;;5034420;28;20696;-79
2022/08/18 10:48:28;;;;;;;1.40;1.30;;;24.00;99.90;;;;;;5034708;28;20186;-79
2022/08/18 10:51:19;;;;;;;1.93;1.77;;;24.00;99.90;;;;;;5024057;28;20268;-79
2022/08/18 10:54:17;;;;;;;2.27;1.80;;;24.00;99.90;;;;;;5030405;28;20175;-79
2022/08/18 10:56:51;;;;;;;1.30;0.87;;;24.10;99.90;;;;;;5005729;28;20218;-78
2022/08/18 10:59:39;;;;;;;1.30;1.17;;;24.00;99.90;;;;;;5025480;28;20661;-79
2022/08/18 11:02:29;;;;;;;2.10;1.90;;;23.70;99.90;;;;;;5031819;28;20569;-79
2022/08/18 11:04:55;;;;;;;1.77;1.67;;;23.70;99.90;;;;;;5021566;28;20174;-79
2022/08/18 11:07:29;;;;;;;2.27;2.17;;;23.80;99.90;;;;;;5029071;28;20221;-82
2022/08/18 11:09:56;;;;;;;2.00;1.80;;;23.70;99.90;;;;;;5023609;28;20189;-78
2022/08/18 11:12:58;;;;;;;1.63;1.53;;;24.10;99.90;;;;;;5014464;28;20671;-80
2022/08/18 11:15:44;;;;;;;2.23;1.73;;;24.30;99.90;;;;;;5029157;28;20671;-79
2022/08/18 11:18:28;;;;;;;1.43;1.33;;;24.50;99.90;;;;;;5020193;28;20210;-79
2022/08/18 11:21:26;;;;;;;1.83;1.73;;;25.00;99.90;;;;;;5033956;28;20175;-79
2022/08/18 11:24:03;;;;;;;2.50;1.53;;;24.90;99.90;;;;;;5029723;28;20183;-79
2022/08/18 11:26:44;;;;;;;1.00;1.00;;;25.30;99.90;;;;;;5029954;28;20284;-79
2022/08/18 11:29:39;;;;;;;1.40;1.33;;;25.90;99.90;;;;;;5023315;28;20186;-79
2022/08/18 11:32:21;;;;;;;1.90;1.50;;;26.40;99.90;;;;;;5017940;28;20206;-79
2022/08/18 11:34:58;;;;;;;1.50;1.40;;;25.70;99.90;;;;;;5027162;28;20178;-79
2022/08/18 11:37:28;;;;;;;1.80;1.53;;;25.60;99.90;;;;;;5046570;28;20316;-79
2022/08/18 11:39:57;;;;;;;2.50;1.57;;;25.50;99.90;;;;;;5029119;28;20218;-79
2022/08/18 11:42:29;;;;;;;1.60;1.27;;;25.00;99.90;;;;;;5031372;28;20637;-79
2022/08/18 11:45:17;;;;;;;1.77;1.60;;;25.30;99.90;;;;;;5033138;28;20178;-79
2022/08/18 11:48:26;;;;;;;1.43;1.27;;;25.90;99.90;;;;;;5032763;28;20189;-80
2022/08/18 11:50:56;;;;;;;2.37;1.57;;;26.20;99.90;;;;;;4996631;28;20278;-79
2022/08/18 11:53:42;;;;;;;1.33;1.23;;;26.30;99.90;;;;;;5025349;28;20203;-81
2022/08/18 11:56:19;;;;;;;1.13;1.07;;;26.80;99.90;;;;;;5021294;28;20310;-80
2022/08/18 11:58:49;;;;;;;1.53;1.27;;;27.00;99.90;;;;;;5022374;28;20193;-80
2022/08/18 12:01:45;;;;;;;1.33;1.23;;;26.80;99.90;;;;;;5026889;28;20171;-81
2022/08/18 12:04:36;;;;;;;1.43;1.10;;;27.40;99.90;;;;;;5028528;28;20201;-81
2022/08/18 12:07:08;;;;;;;1.13;1.00;;;27.30;99.90;;;;;;5026058;28;20220;-80
2022/08/18 12:10:07;;;;;;;1.90;1.43;;;27.70;99.90;;;;;;5030127;28;20187;-80
2022/08/18 12:12:33;;;;;;;1.60;1.27;;;28.40;99.90;;;;;;5027509;28;20185;-81
2022/08/18 12:15:27;;;;;;;1.70;1.47;;;28.40;99.90;;;;;;5032224;28;20186;-81
2022/08/18 12:17:53;;;;;;;2.07;1.60;;;28.70;99.90;;;;;;5021142;28;20191;-80
2022/08/18 12:20:19;;;;;;;2.00;1.50;;;28.20;99.90;;;;;;5031444;28;20632;-80
2022/08/18 12:22:47;;;;;;;1.13;1.07;;;28.30;99.90;;;;;;5033691;28;20174;-80
2022/08/18 12:25:16;;;;;;;1.27;1.20;;;28.40;99.90;;;;;;5025674;28;20191;-81
2022/08/18 12:27:42;;;;;;;1.30;1.20;;;28.00;99.90;;;;;;5028441;28;20224;-80
2022/08/18 12:30:09;;;;;;;1.90;1.33;;;27.70;99.90;;;;;;5022220;28;20194;-80
2022/08/18 12:32:37;;;;;;;2.77;1.10;;;28.50;99.90;;;;;;5025030;28;20191;-80
2022/08/18 12:35:04;;;;;;;2.63;1.88;;;29.00;99.90;;;;;;5026755;28;20190;-81
2022/08/18 12:37:30;;;;;;;1.63;1.48;;;28.00;99.90;;;;;;5030282;28;20230;-81
2022/08/18 12:39:57;;;;;;;1.50;1.40;;;28.40;99.90;;;;;;5029974;28;20661;-80
2022/08/18 12:42:23;;;;;;;1.63;1.50;;;28.90;99.90;;;;;;5028244;28;20186;-80
2022/08/18 12:44:48;;;;;;;2.95;1.75;;;28.10;99.90;;;;;;5021411;28;20193;-80
2022/08/18 12:47:17;;;;;;;1.87;1.77;;;28.00;99.90;;;;;;5029537;28;20209;-80
2022/08/18 12:49:43;;;;;;;1.80;1.70;;;27.40;99.90;;;;;;5027590;28;20568;-81
2022/08/18 12:52:10;;;;;;;3.38;1.33;;;27.20;99.90;;;;;;5026987;28;20187;-81
2022/08/18 12:54:35;;;;;;;1.80;1.50;;;27.60;99.90;;;;;;5028649;28;20214;-83
2022/08/18 12:57:04;;;;;;;1.45;1.35;;;27.40;99.90;;;;;;5039059;28;20205;-80
2022/08/18 12:59:30;;;;;;;1.35;1.10;;;27.60;99.90;;;;;;5049990;28;20265;-80
2022/08/18 13:01:55;;;;;;;0.95;0.95;;;27.90;99.90;;;;;;5050940;28;20202;-81
2022/08/18 13:04:21;;;;;;;1.48;1.20;;;28.10;99.90;;;;;;5054260;28;20270;-81
2022/08/18 13:06:49;;;;;;;2.55;1.52;;;28.10;99.90;;;;;;5059584;28;20297;-81
2022/08/18 13:09:15;;;;;;;3.08;1.33;;;28.20;99.90;;;;;;5042274;28;20633;-81
2022/08/18 13:11:41;;;;;;;3.25;1.00;;;28.30;99.90;;;;;;5045015;28;20202;-81
2022/08/18 13:14:07;;;;;;;1.60;1.25;;;28.50;99.90;;;;;;5053564;28;20250;-80
2022/08/18 13:16:35;;;;;;;1.33;1.23;;;28.70;99.90;;;;;;5044620;28;20221;-80
2022/08/18 13:19:02;;;;;;;1.85;1.73;;;28.60;99.90;;;;;;5051971;28;20190;-81
2022/08/18 13:21:28;;;;;;;1.05;1.02;;;28.00;99.90;;;;;;5047656;28;20189;-80
2022/08/18 13:23:54;;;;;;;2.25;1.65;;;28.10;99.90;;;;;;5046275;28;20202;-81
2022/08/18 13:26:31;;;;;;;1.35;1.23;;;28.30;99.90;;;;;;5046753;28;20277;-81
2022/08/18 13:28:58;;;;;;;1.48;1.38;;;28.40;99.90;;;;;;5036399;28;20186;-80
2022/08/18 13:31:25;;;;;;;1.33;1.05;;;28.60;99.90;;;;;;5037694;28;20182;-80
2022/08/18 13:33:51;;;;;;;2.88;1.70;;;29.00;99.90;;;;;;5029828;28;20260;-80
2022/08/18 13:36:17;;;;;;;2.55;2.42;;;28.40;99.90;;;;;;5034335;28;20213;-80
2022/08/18 13:38:42;;;;;;;2.00;1.88;;;29.00;99.90;;;;;;5032572;28;20184;-80
2022/08/18 13:41:09;;;;;;;1.23;1.13;;;29.30;99.90;;;;;;5035774;28;20186;-80
2022/08/18 13:43:37;;;;;;;1.38;1.30;;;29.10;99.90;;;;;;5034967;28;20178;-80